sensor_id;sensor_type;location;lat;lon;timestamp;pressure;altitude;pressure_sealevel;temperature;humidity
28626;BME280;18905;42.668;23.364;2023-07-09T00:00:50;95478.00;;;19.23;100.00
28626;BME280;18905;42.668;23.364;2023-07-09T00:03:17;95493.81;;;19.33;100.00
28626;BME280;18905;42.668;23.364;2023-07-09T00:05:46;95466.81;;;18.93;100.00
28626;BME280;18905;42.668;23.364;2023-07-09T00:08:28;95488.28;;;19.29;100.00
28626;BME280;18905;42.668;23.364;2023-07-09T00:10:55;95463.16;;;19.05;100.00
28626;BME280;18905;42.668;23.364;2023-07-09T00:13:22;95475.53;;;19.18;100.00
28626;BME280;18905;42.668;23.364;2023-07-09T00:15:48;95483.66;;;19.14;100.00
28626;BME280;18905;42.668;23.364;2023-07-09T00:18:14;95483.53;;;19.07;100.00
28626;BME280;18905;42.668;23.364;2023-07-09T00:20:39;95479.91;;;19.22;100.00
28626;BME280;18905;42.668;23.364;2023-07-09T00:23:09;95443.94;;;19.01;100.00
28626;BME280;18905;42.668;23.364;2023-07-09T00:25:39;95470.22;;;18.87;100.00
28626;BME280;18905;42.668;23.364;2023-07-09T00:28:15;95442.75;;;19.02;100.00
28626;BME280;18905;42.668;23.364;2023-07-09T00:30:41;95464.03;;;18.90;100.00
28626;BME280;18905;42.668;23.364;2023-07-09T00:33:11;95476.31;;;18.99;100.00
28626;BME280;18905;42.668;23.364;2023-07-09T00:35:40;95471.28;;;19.01;100.00
28626;BME280;18905;42.668;23.364;2023-07-09T00:38:12;95479.06;;;18.99;100.00
28626;BME280;18905;42.668;23.364;2023-07-09T00:40:38;95469.91;;;18.92;100.00
28626;BME280;18905;42.668;23.364;2023-07-09T00:43:10;95480.28;;;19.02;100.00
28626;BME280;18905;42.668;23.364;2023-07-09T00:45:39;95432.44;;;18.73;100.00
28626;BME280;18905;42.668;23.364;2023-07-09T00:48:11;95468.69;;;19.08;100.00
28626;BME280;18905;42.668;23.364;2023-07-09T00:50:52;95450.34;;;18.90;100.00
28626;BME280;18905;42.668;23.364;2023-07-09T00:53:25;95463.66;;;19.10;100.00
28626;BME280;18905;42.668;23.364;2023-07-09T00:56:06;95457.72;;;19.08;100.00
28626;BME280;18905;42.668;23.364;2023-07-09T00:58:35;95457.31;;;19.06;100.00
28626;BME280;18905;42.668;23.364;2023-07-09T01:01:04;95462.50;;;18.92;100.00
28626;BME280;18905;42.668;23.364;2023-07-09T01:03:39;95433.69;;;18.98;100.00
28626;BME280;18905;42.668;23.364;2023-07-09T01:06:09;95457.31;;;19.06;100.00
28626;BME280;18905;42.668;23.364;2023-07-09T01:08:37;95463.00;;;18.98;100.00
28626;BME280;18905;42.668;23.364;2023-07-09T01:11:15;95453.72;;;19.02;100.00
28626;BME280;18905;42.668;23.364;2023-07-09T01:13:52;95467.53;;;18.90;100.00
28626;BME280;18905;42.668;23.364;2023-07-09T01:16:22;95461.31;;;19.12;100.00
28626;BME280;18905;42.668;23.364;2023-07-09T01:18:52;95454.69;;;19.13;100.00
28626;BME280;18905;42.668;23.364;2023-07-09T01:21:17;95450.53;;;18.81;100.00
28626;BME280;18905;42.668;23.364;2023-07-09T01:23:43;95460.69;;;19.00;100.00
28626;BME280;18905;42.668;23.364;2023-07-09T01:26:14;95439.88;;;18.95;100.00
28626;BME280;18905;42.668;23.364;2023-07-09T01:28:40;95448.94;;;18.99;100.00
28626;BME280;18905;42.668;23.364;2023-07-09T01:31:09;95453.34;;;19.04;100.00
28626;BME280;18905;42.668;23.364;2023-07-09T01:33:34;95453.56;;;18.95;100.00
28626;BME280;18905;42.668;23.364;2023-07-09T01:35:59;95452.25;;;19.08;100.00
28626;BME280;18905;42.668;23.364;2023-07-09T01:38:28;95450.47;;;18.97;100.00
28626;BME280;18905;42.668;23.364;2023-07-09T01:40:57;95451.28;;;18.97;100.00
28626;BME280;18905;42.668;23.364;2023-07-09T01:43:23;95452.03;;;18.98;100.00
28626;BME280;18905;42.668;23.364;2023-07-09T01:45:50;95462.22;;;18.97;100.00
28626;BME280;18905;42.668;23.364;2023-07-09T01:48:19;95443.56;;;18.84;100.00
28626;BME280;18905;42.668;23.364;2023-07-09T01:50:46;95468.31;;;19.10;100.00
28626;BME280;18905;42.668;23.364;2023-07-09T01:53:15;95465.66;;;19.13;100.00
28626;BME280;18905;42.668;23.364;2023-07-09T01:55:42;95475.03;;;18.74;100.00
28626;BME280;18905;42.668;23.364;2023-07-09T01:58:08;95482.28;;;18.48;100.00
28626;BME280;18905;42.668;23.364;2023-07-09T02:00:34;95455.53;;;17.72;100.00
28626;BME280;18905;42.668;23.364;2023-07-09T02:03:03;95453.13;;;17.40;100.00
28626;BME280;18905;42.668;23.364;2023-07-09T02:05:30;95486.25;;;17.54;100.00
28626;BME280;18905;42.668;23.364;2023-07-09T02:07:56;95457.31;;;17.37;100.00
28626;BME280;18905;42.668;23.364;2023-07-09T02:10:22;95483.31;;;17.31;100.00
28626;BME280;18905;42.668;23.364;2023-07-09T02:12:47;95471.28;;;17.20;100.00
28626;BME280;18905;42.668;23.364;2023-07-09T02:15:13;95464.06;;;17.12;100.00
28626;BME280;18905;42.668;23.364;2023-07-09T02:17:39;95485.72;;;17.05;100.00
28626;BME280;18905;42.668;23.364;2023-07-09T02:20:06;95488.22;;;16.98;100.00
28626;BME280;18905;42.668;23.364;2023-07-09T02:22:35;95454.06;;;16.61;100.00
28626;BME280;18905;42.668;23.364;2023-07-09T02:25:02;95490.06;;;16.67;100.00
28626;BME280;18905;42.668;23.364;2023-07-09T02:27:28;95490.50;;;16.69;100.00
28626;BME280;18905;42.668;23.364;2023-07-09T02:29:53;95495.09;;;16.65;100.00
28626;BME280;18905;42.668;23.364;2023-07-09T02:32:24;95500.22;;;16.54;100.00
28626;BME280;18905;42.668;23.364;2023-07-09T02:34:51;95512.75;;;16.31;100.00
28626;BME280;18905;42.668;23.364;2023-07-09T02:37:19;95508.19;;;16.35;100.00
28626;BME280;18905;42.668;23.364;2023-07-09T02:39:46;95512.63;;;16.16;100.00
28626;BME280;18905;42.668;23.364;2023-07-09T02:42:13;95509.91;;;16.16;100.00
28626;BME280;18905;42.668;23.364;2023-07-09T02:44:40;95511.50;;;16.17;100.00
28626;BME280;18905;42.668;23.364;2023-07-09T02:47:07;95522.72;;;16.27;100.00
28626;BME280;18905;42.668;23.364;2023-07-09T02:49:32;95518.63;;;16.33;100.00
28626;BME280;18905;42.668;23.364;2023-07-09T02:51:57;95488.22;;;16.07;100.00
28626;BME280;18905;42.668;23.364;2023-07-09T02:54:23;95528.72;;;16.57;100.00
28626;BME280;18905;42.668;23.364;2023-07-09T02:56:48;95523.75;;;16.47;100.00
28626;BME280;18905;42.668;23.364;2023-07-09T02:59:14;95534.00;;;16.77;100.00
28626;BME280;18905;42.668;23.364;2023-07-09T03:01:40;95538.41;;;16.82;100.00
28626;BME280;18905;42.668;23.364;2023-07-09T03:04:05;95526.31;;;16.95;100.00
28626;BME280;18905;42.668;23.364;2023-07-09T03:06:32;95543.56;;;17.11;100.00
28626;BME280;18905;42.668;23.364;2023-07-09T03:09:00;95538.16;;;16.87;100.00
28626;BME280;18905;42.668;23.364;2023-07-09T03:11:28;95525.78;;;16.89;100.00
28626;BME280;18905;42.668;23.364;2023-07-09T03:13:54;95502.38;;;16.61;100.00
28626;BME280;18905;42.668;23.364;2023-07-09T03:16:20;95531.84;;;17.10;100.00
28626;BME280;18905;42.668;23.364;2023-07-09T03:18:45;95495.69;;;17.13;100.00
28626;BME280;18905;42.668;23.364;2023-07-09T03:21:11;95530.03;;;17.73;100.00
28626;BME280;18905;42.668;23.364;2023-07-09T03:23:36;95510.84;;;17.85;100.00
28626;BME280;18905;42.668;23.364;2023-07-09T03:26:02;95522.81;;;17.80;100.00
28626;BME280;18905;42.668;23.364;2023-07-09T03:28:31;95550.06;;;18.08;100.00
28626;BME280;18905;42.668;23.364;2023-07-09T03:30:56;95510.28;;;18.10;100.00
28626;BME280;18905;42.668;23.364;2023-07-09T03:33:23;95535.47;;;18.50;100.00
28626;BME280;18905;42.668;23.364;2023-07-09T03:35:50;95533.72;;;18.77;100.00
28626;BME280;18905;42.668;23.364;2023-07-09T03:38:15;95534.81;;;19.10;100.00
28626;BME280;18905;42.668;23.364;2023-07-09T03:40:41;95527.13;;;19.35;100.00
28626;BME280;18905;42.668;23.364;2023-07-09T03:43:07;95521.25;;;19.55;100.00
28626;BME280;18905;42.668;23.364;2023-07-09T03:45:34;95541.78;;;19.87;100.00
28626;BME280;18905;42.668;23.364;2023-07-09T03:48:00;95537.19;;;20.14;100.00
28626;BME280;18905;42.668;23.364;2023-07-09T03:50:25;95503.16;;;19.96;100.00
28626;BME280;18905;42.668;23.364;2023-07-09T03:52:50;95519.78;;;19.84;100.00
28626;BME280;18905;42.668;23.364;2023-07-09T03:55:16;95498.06;;;19.72;100.00
28626;BME280;18905;42.668;23.364;2023-07-09T03:57:42;95541.44;;;20.11;100.00
28626;BME280;18905;42.668;23.364;2023-07-09T04:00:08;95532.97;;;20.20;100.00
28626;BME280;18905;42.668;23.364;2023-07-09T04:02:37;95544.69;;;20.43;100.00
28626;BME280;18905;42.668;23.364;2023-07-09T04:05:03;95534.38;;;20.36;100.00
28626;BME280;18905;42.668;23.364;2023-07-09T04:07:29;95544.03;;;20.04;100.00
28626;BME280;18905;42.668;23.364;2023-07-09T04:09:54;95547.94;;;19.81;100.00
28626;BME280;18905;42.668;23.364;2023-07-09T04:12:20;95536.47;;;19.75;100.00
28626;BME280;18905;42.668;23.364;2023-07-09T04:14:45;95540.00;;;19.34;100.00
28626;BME280;18905;42.668;23.364;2023-07-09T04:17:11;95550.22;;;19.18;100.00
28626;BME280;18905;42.668;23.364;2023-07-09T04:19:37;95547.19;;;18.85;100.00
28626;BME280;18905;42.668;23.364;2023-07-09T04:22:02;95566.19;;;18.78;100.00
28626;BME280;18905;42.668;23.364;2023-07-09T04:24:28;95543.78;;;18.38;100.00
28626;BME280;18905;42.668;23.364;2023-07-09T04:26:53;95535.75;;;18.30;100.00
28626;BME280;18905;42.668;23.364;2023-07-09T04:29:22;95554.28;;;18.21;100.00
28626;BME280;18905;42.668;23.364;2023-07-09T04:31:47;95541.03;;;18.23;100.00
28626;BME280;18905;42.668;23.364;2023-07-09T04:34:13;95557.44;;;18.38;100.00
28626;BME280;18905;42.668;23.364;2023-07-09T04:36:39;95567.56;;;18.88;100.00
28626;BME280;18905;42.668;23.364;2023-07-09T04:39:04;95576.19;;;19.24;100.00
28626;BME280;18905;42.668;23.364;2023-07-09T04:41:30;95563.03;;;19.71;100.00
28626;BME280;18905;42.668;23.364;2023-07-09T04:43:55;95548.53;;;19.93;100.00
28626;BME280;18905;42.668;23.364;2023-07-09T04:46:21;95565.72;;;19.90;100.00
28626;BME280;18905;42.668;23.364;2023-07-09T04:48:46;95560.31;;;19.52;100.00
28626;BME280;18905;42.668;23.364;2023-07-09T04:51:12;95581.38;;;19.48;100.00
28626;BME280;18905;42.668;23.364;2023-07-09T04:53:37;95582.09;;;19.26;100.00
28626;BME280;18905;42.668;23.364;2023-07-09T04:56:02;95573.81;;;19.23;100.00
28626;BME280;18905;42.668;23.364;2023-07-09T04:58:29;95573.47;;;19.66;100.00
28626;BME280;18905;42.668;23.364;2023-07-09T05:00:58;95569.97;;;19.65;100.00
28626;BME280;18905;42.668;23.364;2023-07-09T05:03:24;95568.16;;;19.95;100.00
28626;BME280;18905;42.668;23.364;2023-07-09T05:05:49;95574.69;;;20.32;100.00
28626;BME280;18905;42.668;23.364;2023-07-09T05:08:15;95567.94;;;21.05;100.00
28626;BME280;18905;42.668;23.364;2023-07-09T05:10:47;95586.22;;;21.53;100.00
28626;BME280;18905;42.668;23.364;2023-07-09T05:13:16;95562.91;;;21.73;100.00
28626;BME280;18905;42.668;23.364;2023-07-09T05:15:45;95575.25;;;22.29;100.00
28626;BME280;18905;42.668;23.364;2023-07-09T05:18:12;95581.09;;;22.68;99.79
28626;BME280;18905;42.668;23.364;2023-07-09T05:20:37;95572.84;;;22.68;97.86
28626;BME280;18905;42.668;23.364;2023-07-09T05:23:03;95580.47;;;22.92;98.21
28626;BME280;18905;42.668;23.364;2023-07-09T05:25:29;95582.94;;;23.07;95.65
28626;BME280;18905;42.668;23.364;2023-07-09T05:27:54;95582.22;;;23.21;95.54
28626;BME280;18905;42.668;23.364;2023-07-09T05:30:20;95561.50;;;23.48;92.16
28626;BME280;18905;42.668;23.364;2023-07-09T05:32:46;95584.06;;;23.85;91.17
28626;BME280;18905;42.668;23.364;2023-07-09T05:35:11;95554.88;;;23.70;91.81
28626;BME280;18905;42.668;23.364;2023-07-09T05:37:37;95566.81;;;24.02;90.07
28626;BME280;18905;42.668;23.364;2023-07-09T05:40:03;95581.06;;;24.56;87.85
28626;BME280;18905;42.668;23.364;2023-07-09T05:42:31;95543.94;;;24.99;81.90
28626;BME280;18905;42.668;23.364;2023-07-09T05:44:56;95562.13;;;24.76;82.80
28626;BME280;18905;42.668;23.364;2023-07-09T05:47:22;95582.25;;;24.45;87.97
28626;BME280;18905;42.668;23.364;2023-07-09T05:49:48;95585.41;;;24.57;75.29
28626;BME280;18905;42.668;23.364;2023-07-09T05:52:19;95576.34;;;24.78;79.91
28626;BME280;18905;42.668;23.364;2023-07-09T05:54:45;95575.88;;;25.04;74.86
28626;BME280;18905;42.668;23.364;2023-07-09T05:57:11;95566.41;;;24.10;79.53
28626;BME280;18905;42.668;23.364;2023-07-09T05:59:36;95568.31;;;23.89;78.14
28626;BME280;18905;42.668;23.364;2023-07-09T06:02:02;95571.97;;;24.31;77.96
28626;BME280;18905;42.668;23.364;2023-07-09T06:04:28;95568.44;;;24.52;78.15
28626;BME280;18905;42.668;23.364;2023-07-09T06:06:56;95578.94;;;25.58;71.72
28626;BME280;18905;42.668;23.364;2023-07-09T06:09:21;95575.53;;;24.67;77.08
28626;BME280;18905;42.668;23.364;2023-07-09T06:11:47;95559.97;;;25.50;70.55
28626;BME280;18905;42.668;23.364;2023-07-09T06:14:12;95557.69;;;25.31;73.32
28626;BME280;18905;42.668;23.364;2023-07-09T06:16:37;95568.75;;;23.94;79.00
28626;BME280;18905;42.668;23.364;2023-07-09T06:19:03;95560.06;;;23.00;86.14
28626;BME280;18905;42.668;23.364;2023-07-09T06:21:28;95570.00;;;24.46;82.18
28626;BME280;18905;42.668;23.364;2023-07-09T06:23:54;95560.94;;;24.91;77.73
28626;BME280;18905;42.668;23.364;2023-07-09T06:26:19;95551.09;;;24.69;79.18
28626;BME280;18905;42.668;23.364;2023-07-09T06:28:45;95552.94;;;25.24;77.82
28626;BME280;18905;42.668;23.364;2023-07-09T06:31:11;95562.88;;;25.01;75.80
28626;BME280;18905;42.668;23.364;2023-07-09T06:33:36;95542.94;;;25.65;72.03
28626;BME280;18905;42.668;23.364;2023-07-09T06:36:02;95559.66;;;25.27;75.78
28626;BME280;18905;42.668;23.364;2023-07-09T06:38:28;95550.22;;;25.14;75.98
28626;BME280;18905;42.668;23.364;2023-07-09T06:40:54;95559.81;;;25.85;72.28
28626;BME280;18905;42.668;23.364;2023-07-09T06:43:20;95558.50;;;25.17;75.37
28626;BME280;18905;42.668;23.364;2023-07-09T06:45:57;95561.72;;;26.05;70.68
28626;BME280;18905;42.668;23.364;2023-07-09T06:48:24;95547.22;;;26.42;69.21
28626;BME280;18905;42.668;23.364;2023-07-09T06:50:54;95562.97;;;25.94;65.50
28626;BME280;18905;42.668;23.364;2023-07-09T06:53:21;95554.25;;;26.57;64.24
28626;BME280;18905;42.668;23.364;2023-07-09T06:55:47;95525.44;;;25.82;66.59
28626;BME280;18905;42.668;23.364;2023-07-09T06:58:15;95560.53;;;24.40;75.95
28626;BME280;18905;42.668;23.364;2023-07-09T07:00:41;95557.00;;;24.88;75.99
28626;BME280;18905;42.668;23.364;2023-07-09T07:03:07;95559.25;;;25.39;73.12
28626;BME280;18905;42.668;23.364;2023-07-09T07:05:32;95559.88;;;25.78;65.04
28626;BME280;18905;42.668;23.364;2023-07-09T07:07:58;95551.09;;;24.27;71.59
28626;BME280;18905;42.668;23.364;2023-07-09T07:10:24;95561.69;;;25.09;67.57
28626;BME280;18905;42.668;23.364;2023-07-09T07:12:52;95537.53;;;25.23;69.67
28626;BME280;18905;42.668;23.364;2023-07-09T07:15:17;95563.72;;;25.98;64.54
28626;BME280;18905;42.668;23.364;2023-07-09T07:17:43;95546.25;;;26.11;60.52
28626;BME280;18905;42.668;23.364;2023-07-09T07:20:11;95555.94;;;25.75;64.90
28626;BME280;18905;42.668;23.364;2023-07-09T07:22:37;95553.34;;;25.30;69.28
28626;BME280;18905;42.668;23.364;2023-07-09T07:25:04;95549.00;;;25.18;67.79
28626;BME280;18905;42.668;23.364;2023-07-09T07:27:29;95543.97;;;24.96;70.21
28626;BME280;18905;42.668;23.364;2023-07-09T07:29:55;95552.53;;;25.26;69.67
28626;BME280;18905;42.668;23.364;2023-07-09T07:32:20;95540.81;;;24.41;71.82
28626;BME280;18905;42.668;23.364;2023-07-09T07:34:47;95538.44;;;24.85;69.27
28626;BME280;18905;42.668;23.364;2023-07-09T07:37:13;95521.91;;;24.15;69.79
28626;BME280;18905;42.668;23.364;2023-07-09T07:39:38;95514.81;;;24.25;71.08
28626;BME280;18905;42.668;23.364;2023-07-09T07:42:04;95533.72;;;24.51;67.64
28626;BME280;18905;42.668;23.364;2023-07-09T07:44:29;95528.94;;;24.97;70.64
28626;BME280;18905;42.668;23.364;2023-07-09T07:46:54;95542.44;;;25.81;63.20
28626;BME280;18905;42.668;23.364;2023-07-09T07:49:20;95528.09;;;26.07;66.25
28626;BME280;18905;42.668;23.364;2023-07-09T07:51:45;95550.28;;;24.72;66.88
28626;BME280;18905;42.668;23.364;2023-07-09T07:54:11;95527.41;;;24.64;71.56
28626;BME280;18905;42.668;23.364;2023-07-09T07:56:37;95546.59;;;25.48;69.26
28626;BME280;18905;42.668;23.364;2023-07-09T07:59:03;95538.88;;;25.94;65.97
28626;BME280;18905;42.668;23.364;2023-07-09T08:01:28;95540.09;;;25.83;64.66
28626;BME280;18905;42.668;23.364;2023-07-09T08:03:54;95522.75;;;26.37;62.26
28626;BME280;18905;42.668;23.364;2023-07-09T08:06:20;95540.22;;;25.51;64.33
28626;BME280;18905;42.668;23.364;2023-07-09T08:08:46;95532.25;;;25.67;65.19
28626;BME280;18905;42.668;23.364;2023-07-09T08:11:11;95510.81;;;25.82;64.14
28626;BME280;18905;42.668;23.364;2023-07-09T08:13:37;95532.78;;;25.38;62.86
28626;BME280;18905;42.668;23.364;2023-07-09T08:16:04;95526.34;;;25.69;67.26
28626;BME280;18905;42.668;23.364;2023-07-09T08:18:30;95503.41;;;26.30;64.13
28626;BME280;18905;42.668;23.364;2023-07-09T08:20:55;95514.13;;;26.24;62.58
28626;BME280;18905;42.668;23.364;2023-07-09T08:23:21;95518.41;;;26.80;67.39
28626;BME280;18905;42.668;23.364;2023-07-09T08:25:56;95518.91;;;27.08;57.81
28626;BME280;18905;42.668;23.364;2023-07-09T08:28:23;95524.19;;;26.52;59.70
28626;BME280;18905;42.668;23.364;2023-07-09T08:30:52;95504.25;;;26.71;58.99
28626;BME280;18905;42.668;23.364;2023-07-09T08:33:18;95503.25;;;25.96;60.15
28626;BME280;18905;42.668;23.364;2023-07-09T08:35:43;95525.19;;;26.28;60.82
28626;BME280;18905;42.668;23.364;2023-07-09T08:38:09;95519.09;;;26.47;57.78
28626;BME280;18905;42.668;23.364;2023-07-09T08:40:41;95511.09;;;26.56;61.74
28626;BME280;18905;42.668;23.364;2023-07-09T08:43:32;95520.78;;;26.78;64.24
28626;BME280;18905;42.668;23.364;2023-07-09T08:46:15;95514.59;;;27.04;59.39
28626;BME280;18905;42.668;23.364;2023-07-09T08:48:45;95509.66;;;26.85;56.36
28626;BME280;18905;42.668;23.364;2023-07-09T08:51:38;95508.34;;;26.56;65.72
28626;BME280;18905;42.668;23.364;2023-07-09T08:54:12;95503.72;;;26.39;65.92
28626;BME280;18905;42.668;23.364;2023-07-09T08:56:41;95511.91;;;26.97;64.16
28626;BME280;18905;42.668;23.364;2023-07-09T08:59:08;95511.78;;;26.70;66.49
28626;BME280;18905;42.668;23.364;2023-07-09T09:01:38;95504.06;;;27.29;66.32
28626;BME280;18905;42.668;23.364;2023-07-09T09:04:15;95503.91;;;26.69;65.76
28626;BME280;18905;42.668;23.364;2023-07-09T09:06:47;95483.94;;;27.18;61.77
28626;BME280;18905;42.668;23.364;2023-07-09T09:09:31;95515.28;;;26.30;68.25
28626;BME280;18905;42.668;23.364;2023-07-09T09:14:33;95524.63;;;26.47;73.18
28626;BME280;18905;42.668;23.364;2023-07-09T09:17:02;95507.44;;;26.69;70.56
28626;BME280;18905;42.668;23.364;2023-07-09T09:19:43;95502.03;;;27.33;60.37
28626;BME280;18905;42.668;23.364;2023-07-09T09:22:17;95506.84;;;27.29;61.12
28626;BME280;18905;42.668;23.364;2023-07-09T09:27:36;95511.56;;;26.51;62.16
28626;BME280;18905;42.668;23.364;2023-07-09T09:30:04;95503.75;;;26.83;62.44
28626;BME280;18905;42.668;23.364;2023-07-09T09:32:38;95500.59;;;27.18;63.67
28626;BME280;18905;42.668;23.364;2023-07-09T09:35:15;95501.34;;;27.22;62.97
28626;BME280;18905;42.668;23.364;2023-07-09T09:37:46;95505.81;;;26.72;63.93
28626;BME280;18905;42.668;23.364;2023-07-09T09:40:17;95501.13;;;26.69;58.51
28626;BME280;18905;42.668;23.364;2023-07-09T09:42:43;95496.63;;;26.34;67.29
28626;BME280;18905;42.668;23.364;2023-07-09T09:45:15;95503.53;;;26.63;67.80
28626;BME280;18905;42.668;23.364;2023-07-09T09:47:41;95505.91;;;26.61;66.86
28626;BME280;18905;42.668;23.364;2023-07-09T09:50:13;95496.56;;;26.89;65.94
28626;BME280;18905;42.668;23.364;2023-07-09T09:52:38;95493.44;;;26.83;64.26
28626;BME280;18905;42.668;23.364;2023-07-09T09:55:23;95490.84;;;26.18;62.46
28626;BME280;18905;42.668;23.364;2023-07-09T09:57:51;95489.91;;;27.20;58.89
28626;BME280;18905;42.668;23.364;2023-07-09T10:00:18;95492.47;;;27.37;58.77
28626;BME280;18905;42.668;23.364;2023-07-09T10:02:44;95495.81;;;27.22;58.25
28626;BME280;18905;42.668;23.364;2023-07-09T10:05:14;95484.38;;;27.20;59.72
28626;BME280;18905;42.668;23.364;2023-07-09T10:07:45;95485.94;;;27.21;63.73
28626;BME280;18905;42.668;23.364;2023-07-09T10:10:20;95474.44;;;27.19;63.83
28626;BME280;18905;42.668;23.364;2023-07-09T10:12:55;95486.16;;;27.33;55.55
28626;BME280;18905;42.668;23.364;2023-07-09T10:15:43;95482.97;;;27.35;57.05
28626;BME280;18905;42.668;23.364;2023-07-09T10:23:57;95467.69;;;27.23;57.62
28626;BME280;18905;42.668;23.364;2023-07-09T10:26:37;95468.59;;;27.10;61.00
28626;BME280;18905;42.668;23.364;2023-07-09T10:35:12;95462.03;;;26.97;54.81
28626;BME280;18905;42.668;23.364;2023-07-09T10:37:49;95457.41;;;27.20;56.48
28626;BME280;18905;42.668;23.364;2023-07-09T10:40:46;95456.97;;;27.85;54.90
28626;BME280;18905;42.668;23.364;2023-07-09T10:43:36;95458.22;;;27.81;51.12
28626;BME280;18905;42.668;23.364;2023-07-09T10:46:11;95468.56;;;27.47;53.75
28626;BME280;18905;42.668;23.364;2023-07-09T10:48:41;95451.28;;;27.36;52.53
28626;BME280;18905;42.668;23.364;2023-07-09T10:51:20;95456.34;;;27.71;51.79
28626;BME280;18905;42.668;23.364;2023-07-09T10:54:12;95462.53;;;27.85;49.96
28626;BME280;18905;42.668;23.364;2023-07-09T10:56:40;95456.34;;;27.71;51.57
28626;BME280;18905;42.668;23.364;2023-07-09T10:59:21;95459.41;;;27.80;53.11
28626;BME280;18905;42.668;23.364;2023-07-09T11:01:54;95459.94;;;27.98;54.93
28626;BME280;18905;42.668;23.364;2023-07-09T11:06:52;95448.84;;;27.41;50.20
28626;BME280;18905;42.668;23.364;2023-07-09T11:09:26;95440.44;;;26.81;50.25
28626;BME280;18905;42.668;23.364;2023-07-09T11:11:56;95464.81;;;27.30;49.46
28626;BME280;18905;42.668;23.364;2023-07-09T11:14:33;95449.06;;;27.54;47.97
28626;BME280;18905;42.668;23.364;2023-07-09T11:17:01;95460.41;;;27.93;46.43
28626;BME280;18905;42.668;23.364;2023-07-09T11:19:27;95461.78;;;27.81;48.46
28626;BME280;18905;42.668;23.364;2023-07-09T11:21:59;95459.81;;;27.48;50.35
28626;BME280;18905;42.668;23.364;2023-07-09T11:24:34;95443.13;;;27.22;51.70
28626;BME280;18905;42.668;23.364;2023-07-09T11:27:00;95444.97;;;27.32;49.80
28626;BME280;18905;42.668;23.364;2023-07-09T11:29:26;95446.53;;;27.93;49.76
28626;BME280;18905;42.668;23.364;2023-07-09T11:31:53;95444.19;;;27.61;46.73
28626;BME280;18905;42.668;23.364;2023-07-09T11:34:19;95407.44;;;27.54;48.14
28626;BME280;18905;42.668;23.364;2023-07-09T11:39:22;95446.72;;;27.79;54.41
28626;BME280;18905;42.668;23.364;2023-07-09T11:41:51;95431.31;;;28.01;49.47
28626;BME280;18905;42.668;23.364;2023-07-09T11:44:22;95438.25;;;28.39;47.25
28626;BME280;18905;42.668;23.364;2023-07-09T11:49:34;95432.88;;;28.52;50.53
28626;BME280;18905;42.668;23.364;2023-07-09T11:52:05;95439.16;;;28.06;51.51
28626;BME280;18905;42.668;23.364;2023-07-09T11:54:35;95431.72;;;28.26;49.94
28626;BME280;18905;42.668;23.364;2023-07-09T11:57:02;95441.03;;;28.39;50.10
28626;BME280;18905;42.668;23.364;2023-07-09T11:59:28;95424.66;;;28.44;49.71
28626;BME280;18905;42.668;23.364;2023-07-09T12:01:54;95420.72;;;28.19;49.12
28626;BME280;18905;42.668;23.364;2023-07-09T12:04:23;95427.72;;;28.04;52.10
28626;BME280;18905;42.668;23.364;2023-07-09T12:06:53;95400.72;;;27.78;51.88
28626;BME280;18905;42.668;23.364;2023-07-09T12:09:22;95417.53;;;28.43;52.63
28626;BME280;18905;42.668;23.364;2023-07-09T12:11:49;95423.69;;;28.31;52.28
28626;BME280;18905;42.668;23.364;2023-07-09T12:14:18;95424.47;;;28.32;50.90
28626;BME280;18905;42.668;23.364;2023-07-09T12:16:48;95388.41;;;26.96;49.33
28626;BME280;18905;42.668;23.364;2023-07-09T12:19:17;95425.69;;;28.08;52.80
28626;BME280;18905;42.668;23.364;2023-07-09T12:21:45;95413.03;;;27.77;51.32
28626;BME280;18905;42.668;23.364;2023-07-09T12:24:23;95419.16;;;28.18;49.89
28626;BME280;18905;42.668;23.364;2023-07-09T12:26:52;95426.53;;;28.51;53.47
28626;BME280;18905;42.668;23.364;2023-07-09T12:29:17;95424.63;;;28.48;51.46
28626;BME280;18905;42.668;23.364;2023-07-09T12:31:42;95396.09;;;28.67;49.56
28626;BME280;18905;42.668;23.364;2023-07-09T12:34:14;95415.50;;;28.48;49.65
28626;BME280;18905;42.668;23.364;2023-07-09T12:36:44;95422.06;;;27.84;51.71
28626;BME280;18905;42.668;23.364;2023-07-09T12:39:12;95404.25;;;28.08;53.54
28626;BME280;18905;42.668;23.364;2023-07-09T12:41:39;95419.41;;;28.27;51.50
28626;BME280;18905;42.668;23.364;2023-07-09T12:44:09;95397.59;;;28.25;51.26
28626;BME280;18905;42.668;23.364;2023-07-09T12:46:40;95394.31;;;28.11;49.83
28626;BME280;18905;42.668;23.364;2023-07-09T12:49:05;95384.09;;;28.04;49.29
28626;BME280;18905;42.668;23.364;2023-07-09T12:51:31;95399.38;;;27.63;51.19
28626;BME280;18905;42.668;23.364;2023-07-09T12:54:14;95389.91;;;28.13;55.03
28626;BME280;18905;42.668;23.364;2023-07-09T12:56:40;95402.31;;;28.28;54.24
28626;BME280;18905;42.668;23.364;2023-07-09T12:59:16;95380.94;;;28.02;50.83
28626;BME280;18905;42.668;23.364;2023-07-09T13:01:48;95394.19;;;28.41;54.43
28626;BME280;18905;42.668;23.364;2023-07-09T13:04:13;95394.53;;;27.97;51.25
28626;BME280;18905;42.668;23.364;2023-07-09T13:06:39;95390.91;;;28.23;50.73
28626;BME280;18905;42.668;23.364;2023-07-09T13:09:21;95387.38;;;28.22;52.40
28626;BME280;18905;42.668;23.364;2023-07-09T13:11:46;95373.25;;;28.33;50.89
28626;BME280;18905;42.668;23.364;2023-07-09T13:14:21;95395.25;;;28.24;50.82
28626;BME280;18905;42.668;23.364;2023-07-09T13:16:47;95400.75;;;28.27;50.77